• Join FlightAware (Why Join?)
  • Login
  • US Flag 
11:52PM EDT


 

Airport Tracker/Info


-or-


 

Live Flight TrackerFlight Track Log ✈ FLG4208 ✈ 27-Apr-2013 ✈ KAZO - KDTW

Flight Track Log - Related Links

Times and Time Zones

All times are in EDT time to prevent confusion due to time zone crossing. See the FLG4208 flight status page for this flight to view local times or setup timezone preferences in your user account.

Time Position Orientation Groundspeed Altitude Reporting Facility
EDT Latitude Longitude Course Direction KTS MPH feet Rate Location/Type
11:55AM 42.2014 -85.5361 105° East 160 184 2,500  Level Chicago Center
11:56AM 42.1811 -85.4717 113° Southeast 187 215 5,000 2,580 Climbing Chicago Center
11:57AM 42.1653 -85.3794 103° East 236 272 7,800 2,400 Climbing Chicago Center
11:58AM 42.1582 -85.2105 106° East  Level FlightAware Approximate
11:58AM 42.1450 -85.2681 104° East 272 313 10,000  Level Chicago Center
11:59AM 42.1399 -85.1246 106° East  Level FlightAware Approximate
11:59AM 42.1239 -85.1358 102° East 295 339 10,000  Level Cleveland Center
12:00PM 42.1193 -85.0288 106° East  Level FlightAware Approximate
12:00PM 42.1058 -85.0114 101° East 321 369 10,100  Level Cleveland Center
12:01PM 42.0873 -84.9363 105° East  Level FlightAware Approximate
12:01PM 42.0836 -84.8867 103° East 334 384 11,200  Level Cleveland Center
12:02PM 42.0569 -84.7617 106° East 340 391 12,100 360 Climbing Cleveland Center
12:03PM 41.9986 -84.6433 124° Southeast 353 406 12,000 -60 Descending Cleveland Center
12:04PM 41.9339 -84.5219 126° Southeast 364 419 12,000  Level Cleveland Center
12:05PM 41.8731 -84.4094 126° Southeast 370 426 12,000  Level Cleveland Center
12:06PM 41.8483 -84.2742 104° East 358 412 12,000  Level Cleveland Center
12:07PM 41.8394 -84.1622 96° East 381 438 12,100  Climbing Cleveland Center
12:08PM 41.8442 -84.0089 88° East 387 445 12,000  Descending Cleveland Center
12:09PM 41.9100 -83.8953 52° Northeast 386 444 12,100  Climbing Cleveland Center
12:10PM 41.9781 -83.7758 53° Northeast 387 445 12,100  Level Cleveland Center
12:11PM 42.0558 -83.6792 43° Northeast 386 444 12,100 -240 Level Cleveland Center
12:12PM 42.1417 -83.5825 40° Northeast 373 429 11,600 -540 Descending Cleveland Center
12:14PM 42.2189 -83.5047 37° Northeast 285 328 11,000 -780 Descending Cleveland Center
12:14PM 42.2739 -83.4708 25° Northeast 292 336 10,100 -1,440 Descending Cleveland Center
12:15PM 42.3308 -83.4397 22° Northeast 237 273 8,300 -2,220 Descending Cleveland Center
12:17PM 42.4011 -83.3839 30° Northeast 225 259 5,200 -2,340 Descending Cleveland Center
12:18PM 42.3736 -83.3153 118° Southeast 192 221 3,100 -1,080 Descending Cleveland Center
12:19PM 42.3175 -83.3100 176° South 183 211 2,900 -180 Descending Cleveland Center